sensor_id;sensor_type;location;lat;lon;timestamp;temperature;humidity
40630;DHT22;26329;40.388;-3.710;2023-07-31T00:09:26;30.10;30.20
40630;DHT22;26329;40.388;-3.710;2023-07-31T00:19:27;30.00;30.40
40630;DHT22;26329;40.388;-3.710;2023-07-31T00:29:28;29.90;30.70
40630;DHT22;26329;40.388;-3.710;2023-07-31T00:39:30;29.80;31.00
40630;DHT22;26329;40.388;-3.710;2023-07-31T00:49:31;29.70;32.50
40630;DHT22;26329;40.388;-3.710;2023-07-31T00:59:32;29.40;33.40
40630;DHT22;26329;40.388;-3.710;2023-07-31T01:19:54;29.20;35.60
40630;DHT22;26329;40.388;-3.710;2023-07-31T01:40:00;29.10;37.80
40630;DHT22;26329;40.388;-3.710;2023-07-31T01:50:00;28.90;38.90
40630;DHT22;26329;40.388;-3.710;2023-07-31T02:00:01;28.70;40.00
40630;DHT22;26329;40.388;-3.710;2023-07-31T02:10:02;28.60;40.30
40630;DHT22;26329;40.388;-3.710;2023-07-31T02:20:03;28.40;41.20
40630;DHT22;26329;40.388;-3.710;2023-07-31T02:30:04;28.20;41.80
40630;DHT22;26329;40.388;-3.710;2023-07-31T02:40:06;28.10;42.10
40630;DHT22;26329;40.388;-3.710;2023-07-31T02:50:07;28.00;42.60
40630;DHT22;26329;40.388;-3.710;2023-07-31T03:00:08;27.80;42.40
40630;DHT22;26329;40.388;-3.710;2023-07-31T03:10:10;27.50;41.90
40630;DHT22;26329;40.388;-3.710;2023-07-31T03:20:11;27.30;41.70
40630;DHT22;26329;40.388;-3.710;2023-07-31T03:30:11;26.90;41.80
40630;DHT22;26329;40.388;-3.710;2023-07-31T03:40:12;27.00;43.20
40630;DHT22;26329;40.388;-3.710;2023-07-31T03:50:13;27.10;44.60
40630;DHT22;26329;40.388;-3.710;2023-07-31T04:00:14;27.10;45.00
40630;DHT22;26329;40.388;-3.710;2023-07-31T04:10:15;27.00;45.30
40630;DHT22;26329;40.388;-3.710;2023-07-31T04:20:16;26.90;45.60
40630;DHT22;26329;40.388;-3.710;2023-07-31T04:30:16;26.70;46.00
40630;DHT22;26329;40.388;-3.710;2023-07-31T04:40:17;26.70;46.40
40630;DHT22;26329;40.388;-3.710;2023-07-31T04:50:18;26.50;46.80
40630;DHT22;26329;40.388;-3.710;2023-07-31T05:00:19;26.40;47.10
40630;DHT22;26329;40.388;-3.710;2023-07-31T05:10:19;26.30;47.40
40630;DHT22;26329;40.388;-3.710;2023-07-31T05:20:20;26.20;47.60
40630;DHT22;26329;40.388;-3.710;2023-07-31T05:30:21;26.10;48.10
40630;DHT22;26329;40.388;-3.710;2023-07-31T05:40:22;26.10;48.10
40630;DHT22;26329;40.388;-3.710;2023-07-31T05:50:22;26.00;48.10
40630;DHT22;26329;40.388;-3.710;2023-07-31T06:00:23;25.90;48.40
40630;DHT22;26329;40.388;-3.710;2023-07-31T06:10:24;26.00;48.20
40630;DHT22;26329;40.388;-3.710;2023-07-31T06:20:24;26.00;48.20
40630;DHT22;26329;40.388;-3.710;2023-07-31T06:30:25;26.10;48.10
40630;DHT22;26329;40.388;-3.710;2023-07-31T06:40:26;26.20;47.80
40630;DHT22;26329;40.388;-3.710;2023-07-31T06:50:30;26.20;47.40
40630;DHT22;26329;40.388;-3.710;2023-07-31T07:00:31;26.70;46.20
40630;DHT22;26329;40.388;-3.710;2023-07-31T07:10:32;27.50;44.70
40630;DHT22;26329;40.388;-3.710;2023-07-31T07:20:33;28.10;43.30
40630;DHT22;26329;40.388;-3.710;2023-07-31T07:30:34;28.60;42.40
40630;DHT22;26329;40.388;-3.710;2023-07-31T07:40:42;29.00;41.40
40630;DHT22;26329;40.388;-3.710;2023-07-31T07:50:42;29.20;41.20
40630;DHT22;26329;40.388;-3.710;2023-07-31T08:00:49;29.70;40.10
40630;DHT22;26329;40.388;-3.710;2023-07-31T08:10:50;30.10;39.60
40630;DHT22;26329;40.388;-3.710;2023-07-31T08:20:51;30.40;38.70
40630;DHT22;26329;40.388;-3.710;2023-07-31T08:30:52;30.60;38.20
40630;DHT22;26329;40.388;-3.710;2023-07-31T08:40:52;30.70;38.10
40630;DHT22;26329;40.388;-3.710;2023-07-31T08:50:54;30.80;37.90
40630;DHT22;26329;40.388;-3.710;2023-07-31T09:00:55;30.90;37.30
40630;DHT22;26329;40.388;-3.710;2023-07-31T09:10:59;30.90;37.20
40630;DHT22;26329;40.388;-3.710;2023-07-31T09:21:03;31.10;37.30
40630;DHT22;26329;40.388;-3.710;2023-07-31T09:31:04;31.40;36.80
40630;DHT22;26329;40.388;-3.710;2023-07-31T09:41:05;31.70;36.10
40630;DHT22;26329;40.388;-3.710;2023-07-31T09:51:06;31.80;35.70
40630;DHT22;26329;40.388;-3.710;2023-07-31T10:01:06;31.90;35.60
40630;DHT22;26329;40.388;-3.710;2023-07-31T10:11:10;32.10;35.40
40630;DHT22;26329;40.388;-3.710;2023-07-31T10:21:11;32.10;35.40
40630;DHT22;26329;40.388;-3.710;2023-07-31T10:31:13;32.10;35.30
40630;DHT22;26329;40.388;-3.710;2023-07-31T10:41:14;32.20;34.20
40630;DHT22;26329;40.388;-3.710;2023-07-31T10:51:15;32.40;33.20
40630;DHT22;26329;40.388;-3.710;2023-07-31T11:01:17;32.70;32.70
40630;DHT22;26329;40.388;-3.710;2023-07-31T11:11:20;32.80;32.10
40630;DHT22;26329;40.388;-3.710;2023-07-31T11:21:22;32.80;32.40
40630;DHT22;26329;40.388;-3.710;2023-07-31T11:31:23;33.10;31.60
40630;DHT22;26329;40.388;-3.710;2023-07-31T11:41:24;33.20;31.70
40630;DHT22;26329;40.388;-3.710;2023-07-31T11:51:25;33.40;31.30
40630;DHT22;26329;40.388;-3.710;2023-07-31T12:01:26;33.60;27.90
40630;DHT22;26329;40.388;-3.710;2023-07-31T12:11:28;33.60;28.40
40630;DHT22;26329;40.388;-3.710;2023-07-31T12:21:29;34.10;26.00
40630;DHT22;26329;40.388;-3.710;2023-07-31T12:31:29;34.20;26.90
40630;DHT22;26329;40.388;-3.710;2023-07-31T12:41:33;34.20;27.60
40630;DHT22;26329;40.388;-3.710;2023-07-31T12:51:34;34.30;25.80
40630;DHT22;26329;40.388;-3.710;2023-07-31T13:01:35;34.60;25.30
40630;DHT22;26329;40.388;-3.710;2023-07-31T13:11:36;34.80;25.20
40630;DHT22;26329;40.388;-3.710;2023-07-31T13:21:36;35.00;24.30
40630;DHT22;26329;40.388;-3.710;2023-07-31T13:31:37;35.10;23.40
40630;DHT22;26329;40.388;-3.710;2023-07-31T13:41:38;35.20;23.40
40630;DHT22;26329;40.388;-3.710;2023-07-31T13:51:38;35.00;23.60
40630;DHT22;26329;40.388;-3.710;2023-07-31T14:01:40;35.10;24.50
40630;DHT22;26329;40.388;-3.710;2023-07-31T14:11:40;35.30;24.00
40630;DHT22;26329;40.388;-3.710;2023-07-31T14:21:41;35.70;22.80
40630;DHT22;26329;40.388;-3.710;2023-07-31T14:31:42;35.60;22.40
40630;DHT22;26329;40.388;-3.710;2023-07-31T14:41:43;35.40;22.20
40630;DHT22;26329;40.388;-3.710;2023-07-31T14:51:43;35.40;22.10
40630;DHT22;26329;40.388;-3.710;2023-07-31T15:01:44;35.80;21.60
40630;DHT22;26329;40.388;-3.710;2023-07-31T15:11:45;35.60;21.70
40630;DHT22;26329;40.388;-3.710;2023-07-31T15:21:46;35.70;21.60
40630;DHT22;26329;40.388;-3.710;2023-07-31T15:31:47;35.90;21.20
40630;DHT22;26329;40.388;-3.710;2023-07-31T15:41:48;36.10;21.40
40630;DHT22;26329;40.388;-3.710;2023-07-31T15:51:49;36.10;20.70
40630;DHT22;26329;40.388;-3.710;2023-07-31T16:01:50;35.90;20.50
40630;DHT22;26329;40.388;-3.710;2023-07-31T16:11:50;36.00;20.40
40630;DHT22;26329;40.388;-3.710;2023-07-31T16:21:51;36.10;20.10
40630;DHT22;26329;40.388;-3.710;2023-07-31T16:31:52;36.10;19.80
40630;DHT22;26329;40.388;-3.710;2023-07-31T16:41:53;36.10;19.60
40630;DHT22;26329;40.388;-3.710;2023-07-31T16:51:53;36.00;19.90
40630;DHT22;26329;40.388;-3.710;2023-07-31T17:01:54;36.00;19.80
40630;DHT22;26329;40.388;-3.710;2023-07-31T17:11:56;36.00;19.70
40630;DHT22;26329;40.388;-3.710;2023-07-31T17:21:57;36.10;20.60
40630;DHT22;26329;40.388;-3.710;2023-07-31T17:31:58;36.10;20.50
40630;DHT22;26329;40.388;-3.710;2023-07-31T17:41:58;36.00;20.40
40630;DHT22;26329;40.388;-3.710;2023-07-31T17:51:59;35.90;21.50
40630;DHT22;26329;40.388;-3.710;2023-07-31T18:02:01;35.80;22.00
40630;DHT22;26329;40.388;-3.710;2023-07-31T18:12:02;35.60;22.10
40630;DHT22;26329;40.388;-3.710;2023-07-31T18:22:03;35.40;22.40
40630;DHT22;26329;40.388;-3.710;2023-07-31T18:32:04;35.20;22.80
40630;DHT22;26329;40.388;-3.710;2023-07-31T18:42:07;35.10;23.20
40630;DHT22;26329;40.388;-3.710;2023-07-31T18:52:08;34.90;23.80
40630;DHT22;26329;40.388;-3.710;2023-07-31T19:02:09;34.80;23.90
40630;DHT22;26329;40.388;-3.710;2023-07-31T19:12:12;34.50;24.20
40630;DHT22;26329;40.388;-3.710;2023-07-31T19:22:15;34.30;24.90
40630;DHT22;26329;40.388;-3.710;2023-07-31T19:32:15;34.00;25.40
40630;DHT22;26329;40.388;-3.710;2023-07-31T19:42:16;33.70;22.00
40630;DHT22;26329;40.388;-3.710;2023-07-31T19:52:18;33.30;21.70
40630;DHT22;26329;40.388;-3.710;2023-07-31T20:02:19;33.00;21.90
40630;DHT22;26329;40.388;-3.710;2023-07-31T20:12:19;32.80;22.00
40630;DHT22;26329;40.388;-3.710;2023-07-31T20:22:21;32.50;22.30
40630;DHT22;26329;40.388;-3.710;2023-07-31T20:32:22;32.40;22.60
40630;DHT22;26329;40.388;-3.710;2023-07-31T20:42:26;32.20;22.40
40630;DHT22;26329;40.388;-3.710;2023-07-31T20:52:27;32.10;22.40
40630;DHT22;26329;40.388;-3.710;2023-07-31T21:02:28;31.90;22.80
40630;DHT22;26329;40.388;-3.710;2023-07-31T21:12:28;31.70;23.20
40630;DHT22;26329;40.388;-3.710;2023-07-31T21:22:30;31.70;23.20
40630;DHT22;26329;40.388;-3.710;2023-07-31T21:32:31;31.50;23.70
40630;DHT22;26329;40.388;-3.710;2023-07-31T21:42:32;31.40;23.90
40630;DHT22;26329;40.388;-3.710;2023-07-31T21:52:32;31.10;24.20
40630;DHT22;26329;40.388;-3.710;2023-07-31T22:02:33;30.90;24.40
40630;DHT22;26329;40.388;-3.710;2023-07-31T22:12:34;30.80;23.90
40630;DHT22;26329;40.388;-3.710;2023-07-31T22:22:35;30.70;23.90
40630;DHT22;26329;40.388;-3.710;2023-07-31T22:32:35;30.60;24.10
40630;DHT22;26329;40.388;-3.710;2023-07-31T22:42:36;30.40;24.00
40630;DHT22;26329;40.388;-3.710;2023-07-31T22:52:37;30.20;24.20
40630;DHT22;26329;40.388;-3.710;2023-07-31T23:02:39;30.20;24.50
40630;DHT22;26329;40.388;-3.710;2023-07-31T23:12:40;30.00;25.20
40630;DHT22;26329;40.388;-3.710;2023-07-31T23:22:40;29.80;25.30
40630;DHT22;26329;40.388;-3.710;2023-07-31T23:32:41;29.70;25.20
40630;DHT22;26329;40.388;-3.710;2023-07-31T23:42:42;29.50;25.30
40630;DHT22;26329;40.388;-3.710;2023-07-31T23:52:43;29.30;25.60
